Weather at Al Forsan Heliport

Public forecast

Using degrees Celsius for public forecast. Weather courtesy of forecast.io.

Closest aviation weather report (METAR) to Al Forsan Heliport

Closest report is Al Bateen Executive Airport, 4.8 nm (8.9 km) WNW.

2023/03/28 08:00 (retrieved 30 minutes ago)

OMAD 280800Z 33011KT 310V010 CAVOK 30/10 Q1012 NOSIG

Closest aviation forecast (TAF) to Al Forsan Heliport

Closest forecast is Al Bateen Executive Airport, 4.8 nm (8.9 km) WNW.

2023/03/28 06:00 (retrieved 2 hours ago)

TAF OMAD 280500Z 2806/2912 32012KT 8000 NSC PROB30 TEMPO 2909/2912 30020KT 4000 BLDU